Time;durP1;ratioP1;P1;durP2;ratioP2;P2;SDS_P1;SDS_P2;PMS_P1;PMS_P2;Temp;Humidity;BMP_temperature;BMP_pressure;BME280_temperature;BME280_humidity;BME280_pressure;Samples;Min_cycle;Max_cycle;Signal;HPM_P1;HPM_P2
2022/07/25 00:01:46;;;;;;;1999.90;999.90;;;21.50;99.90;;;;;;5075287;28;20232;-61
2022/07/25 00:04:14;;;;;;;1999.90;999.90;;;21.50;99.90;;;;;;5075284;28;20201;-61
2022/07/25 00:06:42;;;;;;;1999.90;999.90;;;21.40;99.90;;;;;;5075400;28;20560;-61
2022/07/25 00:09:10;;;;;;;1999.90;999.90;;;21.40;99.90;;;;;;5075874;28;20195;-61
2022/07/25 00:11:37;;;;;;;1999.90;999.90;;;21.40;99.90;;;;;;5075756;28;20197;-61
2022/07/25 00:14:05;;;;;;;1999.90;999.90;;;21.40;99.90;;;;;;5074236;28;20211;-62
2022/07/25 00:16:33;;;;;;;1999.90;999.90;;;21.40;99.90;;;;;;5073869;28;20195;-61
2022/07/25 00:19:00;;;;;;;1999.90;999.90;;;21.40;99.90;;;;;;5074700;28;20194;-61
2022/07/25 00:21:27;;;;;;;1999.90;999.90;;;21.40;99.90;;;;;;5074888;28;20212;-61
2022/07/25 00:23:54;;;;;;;1999.90;999.90;;;21.40;99.90;;;;;;5075498;28;20195;-61
2022/07/25 00:26:22;;;;;;;1999.90;999.90;;;21.50;99.90;;;;;;5075476;28;20191;-61
2022/07/25 00:28:49;;;;;;;1999.90;999.90;;;21.50;99.90;;;;;;5075372;28;20203;-62
2022/07/25 00:31:16;;;;;;;1999.90;999.90;;;21.50;99.90;;;;;;5073948;28;20194;-61
2022/07/25 00:33:44;;;;;;;1999.90;999.90;;;21.40;99.90;;;;;;5074344;28;20205;-61
2022/07/25 00:36:11;;;;;;;1999.90;999.90;;;21.50;99.90;;;;;;5074273;28;20203;-61
2022/07/25 00:38:38;;;;;;;1999.90;999.90;;;21.40;99.90;;;;;;5073910;28;20223;-62
2022/07/25 00:41:05;;;;;;;1999.90;999.90;;;21.40;99.90;;;;;;5074118;28;20211;-61
2022/07/25 00:43:33;;;;;;;1999.90;999.90;;;21.20;99.90;;;;;;5073867;28;20219;-61
2022/07/25 00:46:00;;;;;;;1999.90;999.90;;;21.00;99.90;;;;;;5073387;28;20198;-62
2022/07/25 00:48:27;;;;;;;1999.90;999.90;;;20.90;99.90;;;;;;5074116;28;20200;-61
2022/07/25 00:50:55;;;;;;;1999.90;999.90;;;20.70;99.90;;;;;;5073832;28;20209;-61
2022/07/25 00:53:23;;;;;;;1999.90;999.90;;;20.60;99.90;;;;;;5073272;28;20187;-61
2022/07/25 00:55:50;;;;;;;1999.90;999.90;;;20.70;99.90;;;;;;5073555;28;20203;-61
2022/07/25 00:58:17;;;;;;;1999.90;999.90;;;20.80;99.90;;;;;;5073689;28;20210;-61
2022/07/25 01:00:44;;;;;;;1999.90;999.90;;;20.90;99.90;;;;;;5073508;28;20665;-62
2022/07/25 01:03:11;;;;;;;1999.90;999.90;;;20.90;99.90;;;;;;5073360;28;20221;-61
2022/07/25 01:05:38;;;;;;;1999.90;999.90;;;20.90;99.90;;;;;;5072694;28;20728;-61
2022/07/25 01:08:08;;;;;;;1999.90;999.90;;;20.90;99.90;;;;;;5073197;28;20212;-61
2022/07/25 01:10:36;;;;;;;1999.90;999.90;;;21.00;99.90;;;;;;5073326;28;20213;-61
2022/07/25 01:13:03;;;;;;;1999.90;999.90;;;21.00;99.90;;;;;;5073540;28;20251;-61
2022/07/25 01:15:30;;;;;;;1999.90;999.90;;;21.00;99.90;;;;;;5073196;28;20195;-61
2022/07/25 01:17:57;;;;;;;1999.90;999.90;;;20.90;99.90;;;;;;5072825;28;20198;-61
2022/07/25 01:20:27;;;;;;;1999.90;999.90;;;20.90;99.90;;;;;;5072594;28;20560;-61
2022/07/25 01:22:55;;;;;;;1999.90;999.90;;;20.90;99.90;;;;;;5073383;28;20217;-61
2022/07/25 01:25:22;;;;;;;1999.90;999.90;;;20.90;99.90;;;;;;5073175;28;20563;-61
2022/07/25 01:27:52;;;;;;;1999.90;999.90;;;20.80;99.90;;;;;;5073028;28;20195;-61
2022/07/25 01:30:20;;;;;;;1999.90;999.90;;;20.70;99.90;;;;;;5071017;28;20556;-61
2022/07/25 01:32:48;;;;;;;1999.90;999.90;;;20.70;99.90;;;;;;5072007;28;20194;-61
2022/07/25 01:35:15;;;;;;;1999.90;999.90;;;20.60;99.90;;;;;;5072415;28;20555;-61
2022/07/25 01:37:44;;;;;;;1999.90;999.90;;;20.60;99.90;;;;;;5033008;28;1152526;-61
2022/07/25 01:40:11;;;;;;;1999.90;999.90;;;20.60;99.90;;;;;;5074142;28;20259;-61
2022/07/25 01:42:38;;;;;;;1999.90;999.90;;;20.60;99.90;;;;;;5073321;28;20272;-61
2022/07/25 01:45:06;;;;;;;1999.90;999.90;;;20.70;99.90;;;;;;5073533;28;20193;-61
2022/07/25 01:47:33;;;;;;;1999.90;999.90;;;20.70;99.90;;;;;;5073790;28;20191;-61
2022/07/25 01:50:00;;;;;;;1999.90;999.90;;;20.60;99.90;;;;;;5073650;28;20198;-61
2022/07/25 01:52:27;;;;;;;1999.90;999.90;;;20.60;99.90;;;;;;5072933;28;20555;-61
2022/07/25 01:54:56;;;;;;;1999.90;999.90;;;20.40;99.90;;;;;;5073202;28;20192;-61
2022/07/25 01:57:23;;;;;;;1999.90;999.90;;;20.30;99.90;;;;;;5073391;28;20205;-61
2022/07/25 01:59:50;;;;;;;1999.90;999.90;;;20.30;99.90;;;;;;5073276;28;20689;-61
2022/07/25 02:02:17;;;;;;;1999.90;999.90;;;20.30;99.90;;;;;;5073341;28;20714;-61
2022/07/25 02:04:44;;;;;;;1999.90;999.90;;;20.20;99.90;;;;;;5072176;28;20667;-61
2022/07/25 02:07:11;;;;;;;1999.90;999.90;;;20.10;99.90;;;;;;5072515;28;20196;-61
2022/07/25 02:09:38;;;;;;;1999.90;999.90;;;20.10;99.90;;;;;;5072850;28;20199;-61
2022/07/25 02:12:07;;;;;;;1999.90;999.90;;;20.10;99.90;;;;;;5073147;28;20209;-61
2022/07/25 02:14:35;;;;;;;1999.90;999.90;;;20.20;99.90;;;;;;5073214;28;20202;-61
2022/07/25 02:17:02;;;;;;;1999.90;999.90;;;20.20;99.90;;;;;;5073376;28;20200;-61
2022/07/25 02:19:29;;;;;;;1999.90;999.90;;;20.00;99.90;;;;;;5072967;28;20205;-61
2022/07/25 02:21:56;;;;;;;1999.90;999.90;;;19.80;99.90;;;;;;5073149;28;20196;-61
2022/07/25 02:24:23;;;;;;;1999.90;999.90;;;19.70;99.90;;;;;;5073320;28;20191;-61
2022/07/25 02:26:50;;;;;;;1999.90;999.90;;;19.70;99.90;;;;;;5072910;28;20535;-61
2022/07/25 02:29:18;;;;;;;1999.90;999.90;;;19.80;99.90;;;;;;5072514;28;20196;-61
2022/07/25 02:31:45;;;;;;;1999.90;999.90;;;19.80;99.90;;;;;;5072721;28;20218;-61
2022/07/25 02:34:12;;;;;;;1999.90;999.90;;;19.80;99.90;;;;;;5072873;28;20663;-60
2022/07/25 02:36:39;;;;;;;1999.90;999.90;;;19.80;99.90;;;;;;5072902;28;20191;-60
2022/07/25 02:39:07;;;;;;;1999.90;999.90;;;19.70;99.90;;;;;;5073107;28;20197;-61
2022/07/25 02:41:34;;;;;;;1999.90;999.90;;;19.70;99.90;;;;;;5071864;28;20669;-61
2022/07/25 02:44:01;;;;;;;1999.90;999.90;;;19.70;99.90;;;;;;5072928;28;20219;-61
2022/07/25 02:46:29;;;;;;;1999.90;999.90;;;19.70;99.90;;;;;;5072840;28;20195;-61
2022/07/25 02:48:56;;;;;;;1999.90;999.90;;;19.70;99.90;;;;;;5072553;28;20217;-61
2022/07/25 02:51:23;;;;;;;1999.90;999.90;;;19.70;99.90;;;;;;5071633;28;20205;-61
2022/07/25 02:53:50;;;;;;;1999.90;999.90;;;19.60;99.90;;;;;;5072493;28;20207;-61
2022/07/25 02:56:17;;;;;;;1999.90;999.90;;;19.60;99.90;;;;;;5072737;28;20199;-61
2022/07/25 02:58:45;;;;;;;1999.90;999.90;;;19.50;99.90;;;;;;5072783;28;20188;-61
2022/07/25 03:01:12;;;;;;;1999.90;999.90;;;19.50;99.90;;;;;;5072417;28;20284;-61
2022/07/25 03:03:41;;;;;;;1999.90;999.90;;;19.60;99.90;;;;;;5071954;28;20248;-61
2022/07/25 03:06:08;;;;;;;1999.90;999.90;;;19.60;99.90;;;;;;5072618;28;20195;-60
2022/07/25 03:08:35;;;;;;;1999.90;999.90;;;19.60;99.90;;;;;;5072217;28;20672;-61
2022/07/25 03:11:02;;;;;;;1999.90;999.90;;;19.60;99.90;;;;;;5072267;28;20200;-61
2022/07/25 03:13:29;;;;;;;1999.90;999.90;;;19.70;99.90;;;;;;5072097;28;20688;-61
2022/07/25 03:15:56;;;;;;;1999.90;999.90;;;19.80;99.90;;;;;;5072372;28;20206;-61
2022/07/25 03:18:23;;;;;;;1999.90;999.90;;;19.80;99.90;;;;;;5072478;28;20207;-60
2022/07/25 03:20:51;;;;;;;1999.90;999.90;;;19.70;99.90;;;;;;5072414;28;20198;-60
2022/07/25 03:23:18;;;;;;;1999.90;999.90;;;19.60;99.90;;;;;;5072005;28;20213;-60
2022/07/25 03:25:45;;;;;;;1999.90;999.90;;;19.70;99.90;;;;;;5071997;28;20673;-61
2022/07/25 03:28:12;;;;;;;1999.90;999.90;;;19.70;99.90;;;;;;5072364;28;20199;-60
2022/07/25 03:30:39;;;;;;;1999.90;999.90;;;19.70;99.90;;;;;;5072280;28;20203;-60
2022/07/25 03:33:07;;;;;;;1999.90;999.90;;;19.60;99.90;;;;;;5071963;28;20196;-59
2022/07/25 03:35:34;;;;;;;1999.90;999.90;;;19.70;99.90;;;;;;5072312;28;20193;-60
2022/07/25 03:38:02;;;;;;;1999.90;999.90;;;19.60;99.90;;;;;;5071913;28;20227;-60
2022/07/25 03:40:30;;;;;;;1999.90;999.90;;;19.60;99.90;;;;;;5072263;28;20589;-60
2022/07/25 03:42:57;;;;;;;1999.90;999.90;;;19.60;99.90;;;;;;5071721;28;20228;-60
2022/07/25 03:45:24;;;;;;;1999.90;999.90;;;19.60;99.90;;;;;;5072180;28;20202;-60
2022/07/25 03:47:51;;;;;;;1999.90;999.90;;;19.60;99.90;;;;;;5072107;28;20195;-60
2022/07/25 03:50:19;;;;;;;1999.90;999.90;;;19.60;99.90;;;;;;5071948;28;20192;-61
2022/07/25 03:52:46;;;;;;;1999.90;999.90;;;19.50;99.90;;;;;;5071729;28;20217;-60
2022/07/25 03:55:14;;;;;;;1999.90;999.90;;;19.50;99.90;;;;;;5071814;28;20199;-60
2022/07/25 03:57:41;;;;;;;1999.90;999.90;;;19.50;99.90;;;;;;5072056;28;20199;-60
2022/07/25 04:00:11;;;;;;;1999.90;999.90;;;19.60;99.90;;;;;;5072000;28;20203;-60
2022/07/25 04:02:38;;;;;;;1999.90;999.90;;;19.60;99.90;;;;;;5070128;28;20256;-61
2022/07/25 04:05:06;;;;;;;1999.90;999.90;;;19.60;99.90;;;;;;5070400;28;20229;-61
2022/07/25 04:07:34;;;;;;;1999.90;999.90;;;19.60;99.90;;;;;;5070781;28;20553;-60
2022/07/25 04:10:01;;;;;;;1999.90;999.90;;;19.60;99.90;;;;;;5070812;28;20199;-60
2022/07/25 04:12:29;;;;;;;1999.90;999.90;;;19.60;99.90;;;;;;5070280;28;20695;-61
2022/07/25 04:14:57;;;;;;;1999.90;999.90;;;19.50;99.90;;;;;;5070526;28;20199;-61
2022/07/25 04:17:24;;;;;;;1999.90;999.90;;;19.50;99.90;;;;;;5070700;28;20562;-61
2022/07/25 04:19:51;;;;;;;1999.90;999.90;;;19.50;99.90;;;;;;5070247;28;20202;-60
2022/07/25 04:22:18;;;;;;;1999.90;999.90;;;19.60;99.90;;;;;;5070284;28;20194;-61
2022/07/25 04:24:45;;;;;;;1999.90;999.90;;;19.60;99.90;;;;;;5070167;28;20230;-61
2022/07/25 04:27:12;;;;;;;1999.90;999.90;;;19.70;99.90;;;;;;5070746;28;20202;-62
2022/07/25 04:29:41;;;;;;;1999.90;999.90;;;19.80;99.90;;;;;;5073882;28;20195;-59
2022/07/25 04:32:08;;;;;;;1999.90;999.90;;;19.70;99.90;;;;;;5073905;28;20221;-61
2022/07/25 04:34:35;;;;;;;1999.90;999.90;;;19.70;99.90;;;;;;5074048;28;20191;-60
2022/07/25 04:37:02;;;;;;;1999.90;999.90;;;19.60;99.90;;;;;;5073886;28;20236;-61
2022/07/25 04:39:29;;;;;;;1999.90;999.90;;;19.60;99.90;;;;;;5073726;28;20187;-60
2022/07/25 04:41:56;;;;;;;1999.90;999.90;;;19.70;99.90;;;;;;5073583;28;20612;-61
2022/07/25 04:44:23;;;;;;;1999.90;999.90;;;19.70;99.90;;;;;;5073745;28;20224;-60
2022/07/25 04:46:51;;;;;;;1999.90;999.90;;;19.80;99.90;;;;;;5073754;28;20203;-60
2022/07/25 04:49:18;;;;;;;1999.90;999.90;;;19.90;99.90;;;;;;5073603;28;20197;-61
2022/07/25 04:51:46;;;;;;;1999.90;999.90;;;20.00;99.90;;;;;;5073553;28;20196;-61
2022/07/25 04:54:13;;;;;;;1999.90;999.90;;;20.10;99.90;;;;;;5073296;28;20199;-61
2022/07/25 04:56:40;;;;;;;1999.90;999.90;;;20.20;99.90;;;;;;5073538;28;20210;-61
2022/07/25 04:59:07;;;;;;;1999.90;999.90;;;20.30;99.90;;;;;;5073601;28;20562;-61
2022/07/25 05:01:34;;;;;;;1999.90;999.90;;;20.50;99.90;;;;;;5073029;28;20203;-60
2022/07/25 05:04:02;;;;;;;1999.90;999.90;;;20.60;99.90;;;;;;5073080;28;20225;-60
2022/07/25 05:06:29;;;;;;;1999.90;999.90;;;20.70;99.90;;;;;;5073374;28;20203;-61
2022/07/25 05:08:56;;;;;;;1999.90;999.90;;;20.70;99.90;;;;;;5073093;28;20239;-61
2022/07/25 05:11:23;;;;;;;1999.90;999.90;;;20.80;99.90;;;;;;5073323;28;20204;-61
2022/07/25 05:13:50;;;;;;;1999.90;999.90;;;21.00;99.90;;;;;;5073061;28;20201;-60
2022/07/25 05:16:18;;;;;;;1999.90;999.90;;;21.10;99.90;;;;;;5073093;28;20206;-60
2022/07/25 05:18:45;;;;;;;1999.90;999.90;;;21.30;99.90;;;;;;5072674;28;20402;-60
2022/07/25 05:21:13;;;;;;;1999.90;999.90;;;21.50;99.90;;;;;;5073224;28;20208;-60
2022/07/25 05:23:40;;;;;;;1999.90;999.90;;;21.70;99.90;;;;;;5073021;28;20221;-61
2022/07/25 05:26:07;;;;;;;1999.90;999.90;;;21.90;99.90;;;;;;5072944;28;20695;-62
2022/07/25 05:28:34;;;;;;;1999.90;999.90;;;22.50;99.90;;;;;;5072717;28;20664;-60
2022/07/25 05:31:01;;;;;;;1999.90;999.90;;;23.00;99.90;;;;;;5072841;28;20191;-60
2022/07/25 05:33:29;;;;;;;1999.90;999.90;;;23.40;99.90;;;;;;5072858;28;20205;-60
2022/07/25 05:35:56;;;;;;;1999.90;999.90;;;24.10;99.90;;;;;;5072970;28;20195;-61
2022/07/25 05:38:24;;;;;;;1999.90;999.90;;;24.80;99.90;;;;;;5071792;28;20230;-61
2022/07/25 05:40:52;;;;;;;1999.90;999.90;;;25.30;99.90;;;;;;5072482;28;20205;-61
2022/07/25 05:43:19;;;;;;;1999.90;999.90;;;25.60;99.90;;;;;;5072123;28;20203;-62
2022/07/25 05:45:47;;;;;;;1999.90;999.90;;;26.00;99.90;;;;;;5072758;28;20201;-61
2022/07/25 05:48:17;;;;;;;1999.90;999.90;;;25.90;99.90;;;;;;5072633;28;20203;-63
2022/07/25 05:50:44;;;;;;;1999.90;999.90;;;24.80;99.90;;;;;;5072815;28;20199;-62
2022/07/25 05:53:11;;;;;;;1999.90;999.90;;;24.00;99.90;;;;;;5072135;28;20195;-62
2022/07/25 05:55:40;;;;;;;1999.90;999.90;;;23.80;99.90;;;;;;5072618;28;20199;-62
2022/07/25 05:58:08;;;;;;;1999.90;999.90;;;23.70;99.90;;;;;;5072187;28;20248;-62
2022/07/25 06:00:35;;;;;;;1999.90;999.90;;;23.50;99.90;;;;;;5072548;28;20195;-62
2022/07/25 06:03:02;;;;;;;1999.90;999.90;;;23.50;99.90;;;;;;5071980;28;20194;-61
2022/07/25 06:05:29;;;;;;;1999.90;999.90;;;23.50;99.90;;;;;;5072003;28;20221;-61
2022/07/25 06:07:56;;;;;;;1999.90;999.90;;;23.60;99.90;;;;;;5071894;28;20195;-62
2022/07/25 06:10:24;;;;;;;1999.90;999.90;;;23.60;99.90;;;;;;5072012;28;20561;-62
2022/07/25 06:12:53;;;;;;;1999.90;999.90;;;23.70;99.90;;;;;;5071568;28;20199;-62
2022/07/25 06:15:20;;;;;;;1999.90;999.90;;;23.70;99.90;;;;;;5071857;28;20191;-60
2022/07/25 06:17:47;;;;;;;1999.90;999.90;;;23.80;99.90;;;;;;5072060;28;20195;-60
2022/07/25 06:20:14;;;;;;;1999.90;999.90;;;23.90;99.90;;;;;;5071773;28;20220;-59
2022/07/25 06:22:41;;;;;;;1999.90;999.90;;;24.00;99.90;;;;;;5071457;28;20706;-60
2022/07/25 06:25:09;;;;;;;1999.90;999.90;;;24.50;99.90;;;;;;5072036;28;20215;-59
2022/07/25 06:27:37;;;;;;;1999.90;999.90;;;24.90;99.90;;;;;;5071827;28;20221;-60
2022/07/25 06:30:08;;;;;;;1999.90;999.90;;;25.00;99.90;;;;;;5071882;28;20203;-60
2022/07/25 06:32:35;;;;;;;1999.90;999.90;;;24.70;99.90;;;;;;5071869;28;20772;-60
2022/07/25 06:35:02;;;;;;;1999.90;999.90;;;24.70;99.90;;;;;;5071732;28;20199;-60
2022/07/25 06:37:29;;;;;;;1999.90;999.90;;;24.60;99.90;;;;;;5071541;28;20239;-61
2022/07/25 06:39:56;;;;;;;1999.90;999.90;;;24.50;99.90;;;;;;5071475;28;20230;-61
2022/07/25 06:42:23;;;;;;;1999.90;999.90;;;24.50;99.90;;;;;;5071234;28;20199;-61
2022/07/25 06:44:50;;;;;;;1999.90;999.90;;;24.50;99.90;;;;;;5071499;28;20219;-61
2022/07/25 06:47:19;;;;;;;1999.90;999.90;;;24.50;99.90;;;;;;5071605;28;20197;-61
2022/07/25 06:49:46;;;;;;;1999.90;999.90;;;24.40;99.90;;;;;;5071364;28;20201;-61
2022/07/25 06:52:13;;;;;;;1999.90;999.90;;;24.40;99.90;;;;;;5070962;28;20563;-61
2022/07/25 06:54:40;;;;;;;1999.90;999.90;;;24.40;95.90;;;;;;5071417;28;20195;-62
2022/07/25 06:57:07;;;;;;;1999.90;999.90;;;24.50;95.70;;;;;;5071103;28;20195;-61
2022/07/25 06:59:34;;;;;;;1999.90;999.90;;;24.40;94.80;;;;;;5071389;28;20203;-61
2022/07/25 07:02:02;;;;;;;1999.90;999.90;;;24.40;90.00;;;;;;5071427;28;20191;-61
2022/07/25 07:04:30;;;;;;;1999.90;999.90;;;24.30;81.40;;;;;;5071313;28;20225;-61
2022/07/25 07:06:57;;;;;;;1999.90;999.90;;;24.20;66.10;;;;;;5071312;28;20203;-61
2022/07/25 07:09:24;;;;;;;1999.90;999.90;;;24.20;61.00;;;;;;5071155;28;20255;-61
2022/07/25 07:11:51;;;;;;;1999.90;999.90;;;24.20;56.50;;;;;;5071157;28;20195;-61
2022/07/25 07:14:18;;;;;;;1999.90;999.90;;;24.20;62.40;;;;;;5070965;28;20191;-61
2022/07/25 07:16:45;;;;;;;1999.90;999.90;;;24.00;49.60;;;;;;5070839;28;20205;-61
2022/07/25 07:19:13;;;;;;;1999.90;999.90;;;24.00;56.90;;;;;;5070621;28;20199;-61
2022/07/25 07:21:42;;;;;;;1999.90;999.90;;;24.10;55.30;;;;;;5071123;28;20194;-61
2022/07/25 07:24:10;;;;;;;1999.90;999.90;;;24.00;45.90;;;;;;5070701;28;20308;-61
2022/07/25 07:26:37;;;;;;;1999.90;999.90;;;24.00;51.50;;;;;;5070806;28;20194;-61
2022/07/25 07:29:04;;;;;;;1999.90;999.90;;;23.90;40.00;;;;;;5070687;28;20198;-61
2022/07/25 07:31:31;;;;;;;1999.90;999.90;;;23.80;49.30;;;;;;5070742;28;20252;-61
2022/07/25 07:33:58;;;;;;;1999.90;999.90;;;23.90;50.10;;;;;;5070917;28;20203;-60
2022/07/25 07:36:25;;;;;;;1999.90;999.90;;;24.10;52.50;;;;;;5071064;28;20191;-61
2022/07/25 07:38:54;;;;;;;1999.90;999.90;;;24.00;38.20;;;;;;5070647;28;20237;-61
2022/07/25 07:41:21;;;;;;;1999.90;999.90;;;23.90;22.40;;;;;;5071037;28;20267;-61
2022/07/25 07:43:48;;;;;;;1999.90;999.90;;;23.90;19.70;;;;;;5070829;28;20198;-61
2022/07/25 07:46:15;;;;;;;1999.90;999.90;;;23.90;23.60;;;;;;5070644;28;20195;-61
2022/07/25 07:48:43;;;;;;;1999.90;999.90;;;23.80;20.30;;;;;;5070574;28;20594;-61
2022/07/25 07:51:10;;;;;;;1999.90;999.90;;;23.90;31.40;;;;;;5070516;28;20492;-61
2022/07/25 07:56:23;;;;;;;1999.90;999.90;;;24.20;26.20;;;;;;5070933;28;20173;-61
2022/07/25 07:58:50;;;;;;;1999.90;999.90;;;24.00;11.60;;;;;;5070702;28;20205;-61
2022/07/25 08:01:17;;;;;;;1999.90;999.90;;;24.20;14.70;;;;;;5070732;28;20567;-61
2022/07/25 08:03:44;;;;;;;1999.90;999.90;;;24.30;11.70;;;;;;5073432;28;20268;-61
2022/07/25 08:06:11;;;;;;;1999.90;999.90;;;24.40;13.20;;;;;;5074427;28;20219;-61
2022/07/25 08:08:38;;;;;;;1999.90;999.90;;;24.70;9.20;;;;;;5074460;28;20203;-61
2022/07/25 08:11:05;;;;;;;1999.90;999.90;;;24.60;1.00;;;;;;5074365;28;20675;-62
2022/07/25 08:13:35;;;;;;;1999.90;999.90;;;25.00;1.00;;;;;;5073981;28;20199;-61
2022/07/25 08:16:03;;;;;;;1999.90;999.90;;;25.40;1.00;;;;;;5074291;28;20708;-61
2022/07/25 08:18:31;;;;;;;1999.90;999.90;;;25.80;1.00;;;;;;5074361;28;20202;-61
2022/07/25 08:21:00;;;;;;;1999.90;999.90;;;26.20;1.00;;;;;;5074367;28;20201;-61
2022/07/25 08:23:27;;;;;;;1999.90;999.90;;;26.10;1.00;;;;;;5074231;28;20229;-61
2022/07/25 08:25:54;;;;;;;1999.90;999.90;;;26.10;1.00;;;;;;5074270;28;20217;-61
2022/07/25 08:28:21;;;;;;;1999.90;999.90;;;26.80;1.00;;;;;;5074166;28;20199;-61
2022/07/25 08:30:50;;;;;;;1999.90;999.90;;;27.30;1.00;;;;;;5074293;28;20190;-62
2022/07/25 08:33:17;;;;;;;1999.90;999.90;;;27.20;1.00;;;;;;5073696;28;20613;-61
2022/07/25 08:35:48;;;;;;;1999.90;999.90;;;27.60;1.00;;;;;;5074169;28;20191;-61
2022/07/25 08:38:17;;;;;;;1999.90;999.90;;;28.50;1.00;;;;;;5071397;28;20239;-61
2022/07/25 08:40:44;;;;;;;1999.90;999.90;;;27.80;1.00;;;;;;5074143;28;20207;-62
2022/07/25 08:43:12;;;;;;;1999.90;999.90;;;28.00;1.00;;;;;;5073645;28;20209;-62
2022/07/25 08:45:44;;;;;;;1999.90;999.90;;;27.90;1.00;;;;;;5073861;28;20211;-62
2022/07/25 08:48:13;;;;;;;1999.90;999.90;;;26.90;1.00;;;;;;5073539;28;20667;-62
2022/07/25 08:50:41;;;;;;;1999.90;999.90;;;26.90;1.00;;;;;;5073891;28;20203;-62
2022/07/25 08:53:08;;;;;;;1999.90;999.90;;;27.80;1.00;;;;;;5073272;28;20205;-62
2022/07/25 08:55:35;;;;;;;1999.90;999.90;;;27.50;1.00;;;;;;5073766;28;20206;-62
2022/07/25 08:58:03;;;;;;;1999.90;999.90;;;28.00;1.00;;;;;;5073617;28;20194;-62
2022/07/25 09:00:30;;;;;;;1999.90;999.90;;;28.00;1.00;;;;;;5073785;28;20195;-62
2022/07/25 09:02:59;;;;;;;1999.90;999.90;;;27.20;1.00;;;;;;5073077;28;20198;-62
2022/07/25 09:05:29;;;;;;;1999.90;999.90;;;26.90;1.00;;;;;;5073507;28;20219;-62
2022/07/25 09:07:57;;;;;;;1999.90;999.90;;;27.20;1.00;;;;;;5073085;28;20199;-62
2022/07/25 09:10:26;;;;;;;1999.90;999.90;;;27.30;1.00;;;;;;5073191;28;20665;-62
2022/07/25 09:12:55;;;;;;;1999.90;999.90;;;28.30;1.00;;;;;;5072553;28;20692;-62
2022/07/25 09:15:24;;;;;;;1999.90;999.90;;;29.50;1.00;;;;;;5073488;28;20194;-62
2022/07/25 09:17:52;;;;;;;1999.90;999.90;;;30.00;1.00;;;;;;5072989;28;20201;-63
2022/07/25 09:20:21;;;;;;;1999.90;999.90;;;30.20;1.00;;;;;;5072969;28;20676;-63
2022/07/25 09:22:49;;;;;;;1999.90;999.90;;;29.60;1.00;;;;;;5072768;28;20205;-63
2022/07/25 09:25:25;;;;;;;1999.90;999.90;;;29.00;1.00;;;;;;5073166;28;20218;-63
2022/07/25 09:27:52;;;;;;;1999.90;999.90;;;28.60;1.00;;;;;;5072938;28;20259;-63
2022/07/25 09:30:19;;;;;;;1999.90;999.90;;;28.40;1.00;;;;;;5072931;28;20583;-63
2022/07/25 09:32:46;;;;;;;1999.90;999.90;;;28.30;1.00;;;;;;5072862;28;20217;-63
2022/07/25 09:35:14;;;;;;;1999.90;999.90;;;28.30;1.00;;;;;;5072701;28;20191;-63
2022/07/25 09:37:41;;;;;;;1999.90;999.90;;;28.20;1.00;;;;;;5072388;28;20249;-64
2022/07/25 09:40:15;;;;;;;1999.90;999.90;;;28.90;1.00;;;;;;5073041;28;20206;-64
2022/07/25 09:42:44;;;;;;;1999.90;999.90;;;28.40;1.00;;;;;;5072377;28;20706;-64
2022/07/25 09:45:14;;;;;;;1999.90;999.90;;;28.80;1.00;;;;;;5072642;28;20562;-64
2022/07/25 09:47:53;;;;;;;1999.90;999.90;;;28.90;1.00;;;;;;5072717;28;20255;-64
2022/07/25 09:50:23;;;;;;;1999.90;999.90;;;28.30;1.00;;;;;;5072826;28;20451;-64
2022/07/25 09:52:52;;;;;;;1999.90;999.90;;;27.70;1.00;;;;;;5072529;28;20201;-63
2022/07/25 09:55:21;;;;;;;1999.90;999.90;;;28.10;1.00;;;;;;5072400;28;20205;-65
2022/07/25 09:57:48;;;;;;;1999.90;999.90;;;28.50;1.00;;;;;;5072503;28;20202;-64
2022/07/25 10:00:20;;;;;;;1999.90;999.90;;;29.10;1.00;;;;;;5072431;28;20202;-63
2022/07/25 10:02:51;;;;;;;1999.90;999.90;;;29.00;1.00;;;;;;5072410;28;20179;-63
2022/07/25 10:05:30;;;;;;;1999.90;999.90;;;28.90;1.00;;;;;;5072495;28;20207;-63
2022/07/25 10:07:58;;;;;;;1999.90;999.90;;;29.10;1.00;;;;;;5072006;28;20187;-63
2022/07/25 10:10:30;;;;;;;1999.90;999.90;;;28.80;1.00;;;;;;5072450;28;20252;-63
2022/07/25 10:13:03;;;;;;;1999.90;999.90;;;29.10;1.00;;;;;;5072041;28;20548;-63
2022/07/25 10:15:49;;;;;;;1999.90;999.90;;;29.80;1.00;;;;;;5071960;28;20199;-63
2022/07/25 10:18:18;;;;;;;1999.90;999.90;;;28.90;1.00;;;;;;5072155;28;20186;-63
2022/07/25 10:20:47;;;;;;;1999.90;999.90;;;28.70;1.00;;;;;;5072143;28;20194;-63
2022/07/25 10:23:18;;;;;;;1999.90;999.90;;;28.80;1.00;;;;;;5071953;28;20203;-64
2022/07/25 10:25:47;;;;;;;1999.90;999.90;;;29.00;1.00;;;;;;5072240;28;20236;-64
2022/07/25 10:28:19;;;;;;;1999.90;999.90;;;28.90;1.00;;;;;;5072997;28;20202;-64
2022/07/25 10:30:47;;;;;;;1999.90;999.90;;;29.20;1.00;;;;;;5072989;28;20652;-64
2022/07/25 10:33:16;;;;;;;1999.90;999.90;;;28.50;1.00;;;;;;5073185;28;20195;-63
2022/07/25 10:35:44;;;;;;;1999.90;999.90;;;28.50;1.00;;;;;;5072845;28;20195;-63
2022/07/25 10:38:11;;;;;;;1999.90;999.90;;;28.50;1.00;;;;;;5072736;28;20227;-64
2022/07/25 10:40:42;;;;;;;1999.90;999.90;;;28.50;1.00;;;;;;5072975;28;20195;-64
2022/07/25 10:43:14;;;;;;;1999.90;999.90;;;28.60;1.00;;;;;;5072614;28;20182;-63
2022/07/25 10:45:43;;;;;;;1999.90;999.90;;;28.60;1.00;;;;;;5072918;28;20248;-63
2022/07/25 10:48:12;;;;;;;1999.90;999.90;;;28.00;1.00;;;;;;5072688;28;20561;-63
2022/07/25 10:50:56;;;;;;;1999.90;999.90;;;27.80;1.00;;;;;;5072616;28;20201;-63
2022/07/25 10:53:38;;;;;;;1999.90;999.90;;;28.10;1.00;;;;;;5072485;28;20224;-64
2022/07/25 10:56:09;;;;;;;1999.90;999.90;;;29.20;1.00;;;;;;5072534;28;20655;-63
2022/07/25 10:58:50;;;;;;;1999.90;999.90;;;29.90;1.00;;;;;;5072404;28;20207;-63
2022/07/25 11:01:23;;;;;;;1999.90;999.90;;;30.40;1.00;;;;;;5072817;28;20187;-63
2022/07/25 11:03:51;;;;;;;1999.90;999.90;;;29.80;1.00;;;;;;5072731;28;20199;-63
2022/07/25 11:06:30;;;;;;;1999.90;999.90;;;29.70;1.00;;;;;;5072600;28;20215;-62
2022/07/25 11:08:59;;;;;;;1999.90;999.90;;;29.50;1.00;;;;;;5072354;28;20183;-63
2022/07/25 11:11:37;;;;;;;1999.90;999.90;;;28.60;1.00;;;;;;5072123;28;20207;-62
2022/07/25 11:14:14;;;;;;;1999.90;999.90;;;28.20;1.00;;;;;;5072349;28;20183;-62
2022/07/25 11:16:41;;;;;;;1999.90;999.90;;;28.50;1.00;;;;;;5072315;28;20595;-62
2022/07/25 11:19:16;;;;;;;1999.90;999.90;;;28.60;1.00;;;;;;5072167;28;20571;-62
2022/07/25 11:21:47;;;;;;;1999.90;999.90;;;29.10;1.00;;;;;;5072208;28;20521;-62
2022/07/25 11:24:15;;;;;;;1999.90;999.90;;;29.20;1.00;;;;;;5072070;28;20198;-62
2022/07/25 11:26:46;;;;;;;1999.90;999.90;;;29.90;1.00;;;;;;5072126;28;20229;-61
2022/07/25 11:29:23;;;;;;;1999.90;999.90;;;30.20;1.00;;;;;;5072384;28;20209;-62
2022/07/25 11:31:55;;;;;;;1999.90;999.90;;;28.90;1.00;;;;;;5072429;28;20187;-63
2022/07/25 11:34:25;;;;;;;1999.90;999.90;;;28.70;1.00;;;;;;5072049;28;20203;-63
2022/07/25 11:36:56;;;;;;;1999.90;999.90;;;29.50;1.00;;;;;;5073899;28;20228;-64
2022/07/25 11:39:24;;;;;;;1999.90;999.90;;;29.60;1.00;;;;;;5076232;28;20194;-65
2022/07/25 11:42:06;;;;;;;1999.90;999.90;;;29.80;1.00;;;;;;5076324;28;20256;-65
2022/07/25 11:44:36;;;;;;;1999.90;999.90;;;29.10;1.00;;;;;;5076057;28;20255;-65
2022/07/25 11:47:05;;;;;;;1999.90;999.90;;;28.80;1.00;;;;;;5076418;28;20206;-65
2022/07/25 11:49:43;;;;;;;1999.90;999.90;;;28.20;1.00;;;;;;5076003;28;20199;-64
2022/07/25 11:52:19;;;;;;;1999.90;999.90;;;28.80;1.00;;;;;;5076290;28;20179;-63
2022/07/25 11:54:54;;;;;;;1999.90;999.90;;;29.00;1.00;;;;;;5075889;28;20178;-63
2022/07/25 11:57:22;;;;;;;1999.90;999.90;;;29.00;1.00;;;;;;5076249;28;20189;-63
2022/07/25 11:59:51;;;;;;;1999.90;999.90;;;29.30;1.00;;;;;;5076130;28;20191;-64
2022/07/25 12:02:22;;;;;;;1999.90;999.90;;;29.20;1.00;;;;;;5076139;28;20199;-63
2022/07/25 12:04:54;;;;;;;1999.90;999.90;;;29.30;1.00;;;;;;5075720;28;20570;-63
2022/07/25 12:07:22;;;;;;;1999.90;999.90;;;29.40;1.00;;;;;;5075972;28;20205;-63
2022/07/25 12:09:56;;;;;;;1999.90;999.90;;;29.50;1.00;;;;;;5075583;28;20202;-64